createdAt,value
2018-09-08T00:01:48.897Z,14.30
2018-09-08T00:02:48.948Z,14.20
2018-09-08T00:04:41.942Z,14.17
2018-09-08T00:05:41.996Z,14.18
2018-09-08T00:07:34.991Z,14.28
2018-09-08T00:08:35.046Z,14.20
2018-09-08T00:10:28.035Z,14.20
2018-09-08T00:11:28.090Z,14.18
2018-09-08T00:13:21.073Z,14.17
2018-09-08T00:14:21.139Z,14.18
2018-09-08T00:16:14.128Z,14.23
2018-09-08T00:17:14.180Z,14.18
2018-09-08T00:19:07.162Z,14.23
2018-09-08T00:20:07.223Z,14.22
2018-09-08T00:22:00.213Z,14.20
2018-09-08T00:23:00.268Z,14.12
2018-09-08T00:24:53.252Z,14.17
2018-09-08T00:25:53.314Z,14.11
2018-09-08T00:27:46.302Z,13.96
2018-09-08T00:28:46.356Z,14.08
2018-09-08T00:30:39.351Z,13.96
2018-09-08T00:31:39.402Z,14.00
2018-09-08T00:33:32.385Z,14.05
2018-09-08T00:34:32.446Z,14.03
2018-09-08T00:36:25.444Z,14.03
2018-09-08T00:37:25.492Z,14.00
2018-09-08T00:39:18.479Z,13.97
2018-09-08T00:40:18.538Z,14.10
2018-09-08T00:42:11.532Z,14.11
2018-09-08T00:43:11.589Z,14.10
2018-09-08T00:45:04.573Z,14.15
2018-09-08T00:46:04.634Z,14.14
2018-09-08T00:47:57.627Z,14.15
2018-09-08T00:48:57.679Z,14.14
2018-09-08T00:50:50.689Z,14.11
2018-09-08T00:51:50.728Z,14.08
2018-09-08T00:53:44.224Z,14.04
2018-09-08T00:54:44.280Z,14.08
2018-09-08T00:56:37.275Z,14.05
2018-09-08T00:57:37.333Z,13.97
2018-09-08T00:59:30.331Z,13.95
2018-09-08T01:00:30.387Z,13.92
2018-09-08T01:02:23.382Z,13.85
2018-09-08T01:03:23.435Z,13.86
2018-09-08T01:05:16.419Z,13.89
2018-09-08T01:06:16.482Z,13.81
2018-09-08T01:08:09.474Z,13.87
2018-09-08T01:09:09.528Z,13.90
2018-09-08T01:11:02.515Z,13.93
2018-09-08T01:12:02.575Z,13.90
2018-09-08T01:13:55.568Z,13.81
2018-09-08T01:14:55.618Z,13.78
2018-09-08T01:16:48.600Z,13.90
2018-09-08T01:17:48.663Z,13.75
2018-09-08T01:19:41.656Z,13.79
2018-09-08T01:20:41.711Z,13.70
2018-09-08T01:22:34.705Z,13.72
2018-09-08T01:23:34.760Z,13.74
2018-09-08T01:25:27.743Z,13.67
2018-09-08T01:26:27.804Z,13.63
2018-09-08T01:28:20.800Z,13.63
2018-09-08T01:29:20.856Z,13.53
2018-09-08T01:31:13.835Z,13.54
2018-09-08T01:32:13.894Z,13.52
2018-09-08T01:34:06.889Z,13.47
2018-09-08T01:35:06.943Z,13.39
2018-09-08T01:36:59.933Z,13.50
2018-09-08T01:37:59.988Z,13.47
2018-09-08T01:39:52.983Z,13.46
2018-09-08T01:40:53.038Z,13.49
2018-09-08T01:42:46.020Z,13.42
2018-09-08T01:43:46.083Z,13.38
2018-09-08T01:45:39.075Z,13.39
2018-09-08T01:46:39.127Z,13.46
2018-09-08T01:48:32.120Z,13.39
2018-09-08T01:49:32.171Z,13.38
2018-09-08T01:51:25.157Z,13.27
2018-09-08T01:52:25.214Z,13.23
2018-09-08T01:54:18.199Z,13.28
2018-09-08T01:55:18.257Z,13.30
2018-09-08T01:57:11.249Z,13.23
2018-09-08T01:58:11.307Z,13.19
2018-09-08T02:00:04.303Z,13.22
2018-09-08T02:01:04.351Z,13.13
2018-09-08T02:02:57.335Z,13.12
2018-09-08T02:03:57.398Z,13.09
2018-09-08T02:05:50.390Z,13.16
2018-09-08T02:06:50.448Z,13.27
2018-09-08T02:08:43.428Z,13.46
2018-09-08T02:09:43.487Z,13.42
2018-09-08T02:11:36.485Z,13.50
2018-09-08T02:12:36.530Z,13.49
2018-09-08T02:14:29.526Z,13.52
2018-09-08T02:15:29.577Z,13.53
2018-09-08T02:17:22.570Z,13.52
2018-09-08T02:18:22.629Z,13.47
2018-09-08T02:20:15.627Z,13.52
2018-09-08T02:21:15.682Z,13.37
2018-09-08T02:23:08.670Z,13.39
2018-09-08T02:24:08.728Z,13.42
2018-09-08T02:26:01.727Z,13.44
2018-09-08T02:27:01.779Z,13.39
2018-09-08T02:28:54.762Z,13.27
2018-09-08T02:29:54.827Z,13.27
2018-09-08T02:31:47.816Z,13.23
2018-09-08T02:32:47.868Z,13.20
2018-09-08T02:34:40.861Z,13.30
2018-09-08T02:35:40.912Z,13.20
2018-09-08T02:37:33.895Z,13.11
2018-09-08T02:38:33.955Z,13.05
2018-09-08T02:40:26.949Z,13.15
2018-09-08T02:41:27.001Z,13.15
2018-09-08T02:43:19.994Z,13.08
2018-09-08T02:44:20.050Z,12.94
2018-09-08T02:46:13.040Z,13.00
2018-09-08T02:47:13.098Z,13.00
2018-09-08T02:49:06.080Z,13.03
2018-09-08T02:50:06.139Z,13.04
2018-09-08T02:51:59.134Z,13.01
2018-09-08T02:52:59.186Z,13.04
2018-09-08T02:54:52.175Z,13.00
2018-09-08T02:55:52.232Z,12.97
2018-09-08T02:57:45.236Z,12.91
2018-09-08T02:58:45.280Z,12.95
2018-09-08T03:00:38.276Z,12.95
2018-09-08T03:01:38.332Z,12.94
2018-09-08T03:03:31.320Z,12.94
2018-09-08T03:04:31.373Z,12.98
2018-09-08T03:06:24.363Z,13.00
2018-09-08T03:07:24.416Z,12.98
2018-09-08T03:09:17.399Z,12.94
2018-09-08T03:10:17.458Z,12.91
2018-09-08T03:12:10.452Z,12.90
2018-09-08T03:13:10.502Z,12.83
2018-09-08T03:15:03.485Z,12.94
2018-09-08T03:16:03.551Z,12.86
2018-09-08T03:17:56.539Z,12.78
2018-09-08T03:18:56.590Z,12.75
2018-09-08T03:20:49.574Z,12.67
2018-09-08T03:21:49.634Z,12.78
2018-09-08T03:23:42.630Z,12.73
2018-09-08T03:24:42.679Z,12.70
2018-09-08T03:26:35.673Z,12.62
2018-09-08T03:27:35.726Z,12.62
2018-09-08T03:29:28.709Z,12.65
2018-09-08T03:30:28.771Z,12.62
2018-09-08T03:32:21.762Z,12.67
2018-09-08T03:33:21.812Z,12.47
2018-09-08T03:35:14.805Z,12.49
2018-09-08T03:36:14.864Z,12.54
2018-09-08T03:38:07.859Z,12.49
2018-09-08T03:39:07.913Z,12.53
2018-09-08T03:41:00.897Z,12.54
2018-09-08T03:42:00.957Z,12.50
2018-09-08T03:43:53.950Z,12.55
2018-09-08T03:44:54.002Z,12.50
2018-09-08T03:46:46.994Z,12.55
2018-09-08T03:47:47.048Z,12.54
2018-09-08T03:49:40.033Z,12.47
2018-09-08T03:50:40.093Z,12.53
2018-09-08T03:52:33.086Z,12.58
2018-09-08T03:53:33.136Z,12.53
2018-09-08T03:55:26.122Z,12.46
2018-09-08T03:56:26.180Z,12.49
2018-09-08T03:58:19.170Z,12.40
2018-09-08T03:59:19.225Z,12.39
2018-09-08T04:01:12.211Z,12.46
2018-09-08T04:02:12.272Z,12.43
2018-09-08T04:04:05.263Z,12.40
2018-09-08T04:05:05.317Z,12.43
2018-09-08T04:06:58.323Z,12.31
2018-09-08T04:07:58.361Z,12.36
2018-09-08T04:09:51.351Z,12.29
2018-09-08T04:10:51.403Z,12.29
2018-09-08T04:12:44.401Z,12.22
2018-09-08T04:13:44.457Z,12.20
2018-09-08T04:15:37.438Z,12.31
2018-09-08T04:16:37.499Z,12.32
2018-09-08T04:18:30.492Z,12.32
2018-09-08T04:19:30.542Z,12.28
2018-09-08T04:21:23.523Z,12.21
2018-09-08T04:22:23.583Z,12.20
2018-09-08T04:24:16.580Z,12.20
2018-09-08T04:25:16.636Z,12.24
2018-09-08T04:27:09.629Z,12.10
2018-09-08T04:28:09.689Z,12.22
2018-09-08T04:30:02.679Z,12.10
2018-09-08T04:31:02.729Z,12.12
2018-09-08T04:32:55.724Z,12.09
2018-09-08T04:33:55.774Z,12.10
2018-09-08T04:35:48.759Z,12.18
2018-09-08T04:36:48.819Z,12.24
2018-09-08T04:38:41.811Z,12.20
2018-09-08T04:39:41.861Z,12.07
2018-09-08T04:41:34.848Z,12.13
2018-09-08T04:42:34.905Z,12.15
2018-09-08T04:44:27.899Z,12.09
2018-09-08T04:45:27.951Z,12.12
2018-09-08T04:47:20.933Z,12.07
2018-09-08T04:48:20.991Z,12.06
2018-09-08T04:50:13.991Z,12.06
2018-09-08T04:51:14.041Z,12.03
2018-09-08T04:53:07.534Z,12.04
2018-09-08T04:54:07.592Z,12.07
2018-09-08T04:56:00.584Z,12.03
2018-09-08T04:57:00.636Z,12.00
2018-09-08T04:58:53.629Z,12.02
2018-09-08T04:59:53.683Z,12.03
2018-09-08T05:01:46.667Z,12.06
2018-09-08T05:02:46.724Z,11.97
2018-09-08T05:04:39.723Z,11.94
2018-09-08T05:05:39.770Z,11.88
2018-09-08T05:07:32.751Z,11.90
2018-09-08T05:08:32.810Z,11.91
2018-09-08T05:10:25.804Z,11.87
2018-09-08T05:11:25.855Z,11.73
2018-09-08T05:13:18.836Z,11.77
2018-09-08T05:14:18.897Z,11.69
2018-09-08T05:16:11.890Z,11.77
2018-09-08T05:17:11.993Z,11.69
2018-09-08T05:19:04.933Z,11.65
2018-09-08T05:20:04.988Z,11.68
2018-09-08T05:21:57.981Z,11.72
2018-09-08T05:22:58.030Z,11.69
2018-09-08T05:24:51.025Z,11.77
2018-09-08T05:25:51.077Z,11.73
2018-09-08T05:27:44.058Z,11.70
2018-09-08T05:28:44.117Z,11.73
2018-09-08T05:30:37.111Z,11.88
2018-09-08T05:31:37.161Z,11.80
2018-09-08T05:33:30.152Z,11.88
2018-09-08T05:34:30.211Z,11.86
2018-09-08T05:36:23.204Z,11.88
2018-09-08T05:37:23.255Z,11.90
2018-09-08T05:39:16.237Z,11.87
2018-09-08T05:40:16.294Z,11.88
2018-09-08T05:42:09.289Z,11.91
2018-09-08T05:43:09.341Z,11.90
2018-09-08T05:45:02.333Z,12.02
2018-09-08T05:46:02.381Z,11.97
2018-09-08T05:47:55.366Z,12.02
2018-09-08T05:48:55.484Z,12.03
2018-09-08T05:50:48.419Z,12.07
2018-09-08T05:51:48.480Z,12.09
2018-09-08T05:53:41.961Z,12.18
2018-09-08T05:54:42.019Z,12.21
2018-09-08T05:56:35.008Z,12.37
2018-09-08T05:57:35.060Z,12.35
2018-09-08T05:59:28.045Z,12.37
2018-09-08T06:00:28.105Z,12.42
2018-09-08T06:02:21.100Z,12.50
2018-09-08T06:03:21.148Z,12.64
2018-09-08T06:05:14.133Z,12.76
2018-09-08T06:06:14.196Z,12.79
2018-09-08T06:08:07.183Z,12.83
2018-09-08T06:09:07.233Z,12.87
2018-09-08T06:11:00.224Z,12.94
2018-09-08T06:12:00.276Z,12.95
2018-09-08T06:13:53.256Z,13.00
2018-09-08T06:14:53.347Z,13.09
2018-09-08T06:16:46.311Z,13.18
2018-09-08T06:17:46.360Z,13.25
2018-09-08T06:19:39.379Z,13.53
2018-09-08T06:20:39.401Z,13.46
2018-09-08T06:22:32.393Z,13.60
2018-09-08T06:23:32.445Z,13.72
2018-09-08T06:25:25.500Z,13.77
2018-09-08T06:26:25.493Z,13.86
2018-09-08T06:28:18.491Z,13.93
2018-09-08T06:29:18.540Z,14.18
2018-09-08T06:31:11.543Z,14.37
2018-09-08T06:32:11.585Z,14.72
2018-09-08T06:34:04.566Z,15.04
2018-09-08T06:35:04.663Z,15.58
2018-09-08T06:36:57.623Z,16.26
2018-09-08T06:37:57.670Z,16.64
2018-09-08T06:39:50.652Z,18.08
2018-09-08T06:40:50.715Z,18.96
2018-09-08T06:42:43.708Z,19.62
2018-09-08T06:43:43.761Z,19.95
2018-09-08T06:45:36.749Z,20.70
2018-09-08T06:46:36.811Z,20.87
2018-09-08T06:48:29.841Z,20.72
2018-09-08T06:49:29.857Z,20.52
2018-09-08T06:51:22.850Z,20.55
2018-09-08T06:52:22.916Z,20.74
2018-09-08T06:54:15.910Z,21.00
2018-09-08T06:55:15.964Z,20.90
2018-09-08T06:57:08.963Z,20.85
2018-09-08T06:58:09.019Z,20.29
2018-09-08T07:00:02.015Z,20.29
2018-09-08T07:01:02.078Z,20.26
2018-09-08T07:02:55.075Z,21.80
2018-09-08T07:03:55.131Z,22.75
2018-09-08T07:05:48.126Z,22.59
2018-09-08T07:06:48.187Z,23.03
2018-09-08T07:08:41.187Z,23.74
2018-09-08T07:09:41.246Z,24.10
2018-09-08T07:11:34.242Z,22.85
2018-09-08T07:12:34.308Z,22.08
2018-09-08T07:14:27.321Z,20.36
2018-09-08T07:15:27.380Z,20.11
2018-09-08T07:17:20.401Z,19.00
2018-09-08T07:18:20.472Z,19.18
2018-09-08T07:20:13.439Z,20.44
2018-09-08T07:21:13.520Z,20.62
2018-09-08T07:23:06.511Z,21.45
2018-09-08T07:24:06.566Z,21.60
2018-09-08T07:25:59.562Z,21.95
2018-09-08T07:26:59.628Z,22.20
2018-09-08T07:28:52.630Z,22.04
2018-09-08T07:29:52.690Z,21.82
2018-09-08T07:31:45.683Z,22.69
2018-09-08T07:32:45.753Z,22.63
2018-09-08T07:34:38.756Z,23.68
2018-09-08T07:35:38.819Z,24.08
2018-09-08T07:37:31.824Z,23.39
2018-09-08T07:38:31.889Z,24.21
2018-09-08T07:40:24.900Z,23.68
2018-09-08T07:41:24.958Z,23.41
2018-09-08T07:43:17.970Z,22.36
2018-09-08T07:44:18.033Z,21.76
2018-09-08T07:46:11.032Z,21.50
2018-09-08T07:47:11.097Z,21.43
2018-09-08T07:49:04.109Z,21.72
2018-09-08T07:50:04.171Z,21.58
2018-09-08T07:51:57.166Z,20.97
2018-09-08T07:52:57.228Z,22.00
2018-09-08T07:54:50.235Z,22.53
2018-09-08T07:55:50.290Z,23.24
2018-09-08T07:57:43.290Z,23.77
2018-09-08T07:58:43.362Z,23.56
2018-09-08T08:00:36.366Z,24.26
2018-09-08T08:01:36.425Z,24.88
2018-09-08T08:03:29.447Z,23.84
2018-09-08T08:04:29.504Z,24.48
2018-09-08T08:06:22.509Z,24.74
2018-09-08T08:07:22.569Z,24.54
2018-09-08T08:09:15.583Z,25.54
2018-09-08T08:10:15.641Z,25.70
2018-09-08T08:12:08.646Z,25.28
2018-09-08T08:13:08.710Z,25.95
2018-09-08T08:15:01.723Z,25.55
2018-09-08T08:16:01.783Z,25.44
2018-09-08T08:17:54.788Z,26.75
2018-09-08T08:18:54.858Z,26.75
2018-09-08T08:20:47.873Z,26.74
2018-09-08T08:21:47.934Z,27.49
2018-09-08T08:23:40.947Z,26.92
2018-09-08T08:24:41.018Z,26.93
2018-09-08T08:26:34.031Z,27.26
2018-09-08T08:27:34.096Z,26.52
2018-09-08T08:29:27.122Z,27.15
2018-09-08T08:30:27.173Z,27.27
2018-09-08T08:32:20.180Z,26.90
2018-09-08T08:33:20.247Z,26.89
2018-09-08T08:35:13.266Z,27.22
2018-09-08T08:36:13.338Z,26.77
2018-09-08T08:38:06.338Z,26.10
2018-09-08T08:39:06.412Z,25.53
2018-09-08T08:40:59.423Z,25.54
2018-09-08T08:41:59.488Z,26.10
2018-09-08T08:43:52.490Z,26.23
2018-09-08T08:44:52.560Z,26.36
2018-09-08T08:46:45.574Z,26.25
2018-09-08T08:47:45.638Z,26.13
2018-09-08T08:49:38.683Z,25.59
2018-09-08T08:50:38.713Z,25.96
2018-09-08T08:52:31.803Z,25.65
2018-09-08T08:53:31.795Z,25.43
2018-09-08T08:55:24.822Z,24.21
2018-09-08T08:56:24.871Z,24.29
2018-09-08T08:58:17.876Z,23.91
2018-09-08T08:59:17.944Z,24.08
2018-09-08T09:01:10.954Z,23.78
2018-09-08T09:02:11.016Z,23.74
2018-09-08T09:04:04.023Z,23.59
2018-09-08T09:05:04.095Z,22.91
2018-09-08T09:06:57.526Z,22.44
2018-09-08T09:07:57.166Z,22.29
2018-09-08T09:09:50.165Z,21.85
2018-09-08T09:10:50.234Z,21.75
2018-09-08T09:12:43.260Z,21.33
2018-09-08T09:13:43.301Z,21.39
2018-09-08T09:15:36.731Z,21.35
2018-09-08T09:16:36.370Z,21.55
2018-09-08T09:18:29.895Z,20.96
2018-09-08T09:19:29.432Z,20.58
2018-09-08T09:21:22.448Z,20.48
2018-09-08T09:22:22.496Z,20.77
2018-09-08T09:24:15.958Z,20.82
2018-09-08T09:25:15.562Z,20.59
2018-09-08T09:27:08.562Z,20.77
2018-09-08T09:28:08.624Z,20.87
2018-09-08T09:30:01.620Z,20.88
2018-09-08T09:31:01.694Z,21.12
2018-09-08T09:32:54.690Z,21.21
2018-09-08T09:33:54.750Z,20.84
2018-09-08T09:35:47.749Z,20.97
2018-09-08T09:36:47.814Z,21.09
2018-09-08T09:38:40.864Z,21.25
2018-09-08T09:39:40.924Z,21.00
2018-09-08T09:41:33.919Z,21.39
2018-09-08T09:42:33.997Z,21.52
2018-09-08T09:44:26.991Z,21.79
2018-09-08T09:45:27.049Z,21.91
2018-09-08T09:47:20.048Z,22.10
2018-09-08T09:48:20.105Z,22.07
2018-09-08T09:50:13.100Z,21.99
2018-09-08T09:51:13.166Z,21.91
2018-09-08T09:53:06.172Z,21.46
2018-09-08T09:54:06.229Z,21.46
2018-09-08T09:55:59.224Z,21.37
2018-09-08T09:56:59.289Z,21.33
2018-09-08T09:58:52.290Z,21.17
2018-09-08T09:59:52.352Z,21.12
2018-09-08T10:01:45.356Z,20.92
2018-09-08T10:02:45.424Z,21.15
2018-09-08T10:04:38.422Z,21.43
2018-09-08T10:05:38.482Z,21.80
2018-09-08T10:07:31.483Z,21.51
2018-09-08T10:08:31.546Z,21.55
2018-09-08T10:10:24.547Z,21.32
2018-09-08T10:11:24.604Z,21.27
2018-09-08T10:13:17.596Z,21.20
2018-09-08T10:14:17.664Z,21.05
2018-09-08T10:16:10.673Z,20.87
2018-09-08T10:17:10.732Z,20.92
2018-09-08T10:19:03.746Z,20.90
2018-09-08T10:20:03.793Z,21.03
2018-09-08T10:21:56.802Z,21.07
2018-09-08T10:22:56.901Z,20.99
2018-09-08T10:24:49.869Z,21.03
2018-09-08T10:25:49.929Z,20.99
2018-09-08T10:27:42.929Z,20.96
2018-09-08T10:28:42.989Z,21.02
2018-09-08T10:30:36.020Z,20.99
2018-09-08T10:31:36.049Z,21.15
2018-09-08T10:33:29.047Z,21.15
2018-09-08T10:34:29.110Z,21.20
2018-09-08T10:36:22.114Z,21.35
2018-09-08T10:37:22.174Z,21.52
2018-09-08T10:39:15.174Z,21.39
2018-09-08T10:40:15.268Z,21.42
2018-09-08T10:42:08.238Z,21.02
2018-09-08T10:43:08.295Z,21.12
2018-09-08T10:45:01.297Z,20.95
2018-09-08T10:46:01.355Z,20.74
2018-09-08T10:47:54.347Z,20.65
2018-09-08T10:48:54.412Z,20.72
2018-09-08T10:50:47.443Z,20.82
2018-09-08T10:51:47.468Z,20.88
2018-09-08T10:53:40.973Z,20.88
2018-09-08T10:54:41.040Z,20.85
2018-09-08T10:56:34.039Z,21.05
2018-09-08T10:57:34.098Z,21.18
2018-09-08T10:59:27.094Z,21.33
2018-09-08T11:00:27.156Z,21.42
2018-09-08T11:02:20.524Z,21.37
2018-09-08T11:03:20.219Z,21.17
2018-09-08T11:05:13.219Z,21.17
2018-09-08T11:06:13.282Z,20.96
2018-09-08T11:08:06.288Z,20.70
2018-09-08T11:09:06.346Z,20.84
2018-09-08T11:10:59.351Z,20.97
2018-09-08T11:11:59.412Z,21.21
2018-09-08T11:13:52.405Z,21.09
2018-09-08T11:14:52.468Z,21.05
2018-09-08T11:16:45.492Z,21.18
2018-09-08T11:17:45.556Z,21.35
2018-09-08T11:19:38.546Z,21.67
2018-09-08T11:20:38.612Z,21.80
2018-09-08T11:22:31.612Z,21.73
2018-09-08T11:23:31.671Z,21.77
2018-09-08T11:25:24.682Z,21.80
2018-09-08T11:26:24.741Z,21.80
2018-09-08T11:28:17.743Z,21.89
2018-09-08T11:29:17.801Z,21.77
2018-09-08T11:31:10.823Z,21.70
2018-09-08T11:32:10.860Z,21.54
2018-09-08T11:34:03.860Z,21.79
2018-09-08T11:35:03.921Z,21.82
2018-09-08T11:36:56.920Z,22.06
2018-09-08T11:37:57.037Z,22.11
2018-09-08T11:39:49.974Z,21.91
2018-09-08T11:40:50.069Z,21.79
2018-09-08T11:42:43.038Z,21.64
2018-09-08T11:43:43.094Z,21.70
2018-09-08T11:45:36.091Z,21.54
2018-09-08T11:46:36.153Z,21.54
2018-09-08T11:48:29.156Z,21.58
2018-09-08T11:49:29.219Z,21.69
2018-09-08T11:51:22.209Z,21.70
2018-09-08T11:52:22.274Z,21.69
2018-09-08T11:54:15.783Z,21.42
2018-09-08T11:55:15.839Z,21.48
2018-09-08T11:57:08.847Z,21.40
2018-09-08T11:58:08.899Z,21.25
2018-09-08T12:00:01.909Z,21.06
2018-09-08T12:01:01.958Z,20.96
2018-09-08T12:02:55.010Z,20.96
2018-09-08T12:03:55.014Z,21.07
2018-09-08T12:05:48.008Z,21.29
2018-09-08T12:06:48.073Z,21.32
2018-09-08T12:08:41.075Z,21.58
2018-09-08T12:09:41.131Z,21.67
2018-09-08T12:11:34.124Z,22.08
2018-09-08T12:12:34.191Z,22.13
2018-09-08T12:14:27.193Z,22.28
2018-09-08T12:15:27.268Z,22.17
2018-09-08T12:17:20.246Z,22.14
2018-09-08T12:18:20.309Z,22.11
2018-09-08T12:20:13.310Z,21.98
2018-09-08T12:21:13.368Z,21.91
2018-09-08T12:23:06.370Z,21.91
2018-09-08T12:24:06.427Z,22.04
2018-09-08T12:25:59.421Z,21.80
2018-09-08T12:26:59.487Z,21.82
2018-09-08T12:28:52.492Z,21.69
2018-09-08T12:29:52.547Z,21.70
2018-09-08T12:31:45.542Z,21.66
2018-09-08T12:32:45.609Z,21.64
2018-09-08T12:34:38.606Z,21.61
2018-09-08T12:35:38.666Z,21.51
2018-09-08T12:37:31.661Z,21.30
2018-09-08T12:38:31.759Z,21.37
2018-09-08T12:40:24.726Z,21.18
2018-09-08T12:41:24.782Z,21.45
2018-09-08T12:43:17.780Z,21.48
2018-09-08T12:44:17.845Z,21.43
2018-09-08T12:46:10.844Z,21.60
2018-09-08T12:47:10.902Z,21.45
2018-09-08T12:49:03.903Z,21.75
2018-09-08T12:50:03.960Z,21.92
2018-09-08T12:51:56.952Z,22.06
2018-09-08T12:52:57.019Z,22.04
2018-09-08T12:54:50.030Z,21.93
2018-09-08T12:55:50.080Z,21.93
2018-09-08T12:57:43.076Z,22.08
2018-09-08T12:58:43.143Z,22.17
2018-09-08T13:00:36.144Z,21.93
2018-09-08T13:01:36.199Z,21.62
2018-09-08T13:03:29.191Z,21.48
2018-09-08T13:04:29.256Z,21.48
2018-09-08T13:06:22.259Z,21.52
2018-09-08T13:07:22.318Z,21.54
2018-09-08T13:09:15.320Z,21.72
2018-09-08T13:10:15.376Z,21.79
2018-09-08T13:12:08.373Z,22.10
2018-09-08T13:13:08.437Z,22.14
2018-09-08T13:15:01.445Z,21.99
2018-09-08T13:16:01.498Z,22.00
2018-09-08T13:17:54.494Z,21.85
2018-09-08T13:18:54.561Z,21.76
2018-09-08T13:20:47.560Z,21.55
2018-09-08T13:21:47.618Z,21.48
2018-09-08T13:23:40.612Z,21.61
2018-09-08T13:24:40.678Z,21.82
2018-09-08T13:26:33.679Z,21.64
2018-09-08T13:27:33.740Z,21.66
2018-09-08T13:29:26.736Z,21.66
2018-09-08T13:30:26.797Z,21.55
2018-09-08T13:32:19.797Z,21.70
2018-09-08T13:33:19.855Z,21.79
2018-09-08T13:35:12.856Z,21.91
2018-09-08T13:36:12.911Z,21.98
2018-09-08T13:38:05.906Z,22.04
2018-09-08T13:39:05.973Z,22.08
2018-09-08T13:40:58.974Z,22.23
2018-09-08T13:41:59.033Z,22.08
2018-09-08T13:43:52.028Z,22.11
2018-09-08T13:44:52.092Z,22.04
2018-09-08T13:46:45.108Z,22.11
2018-09-08T13:47:45.168Z,22.14
2018-09-08T13:49:38.159Z,22.23
2018-09-08T13:50:38.224Z,22.35
2018-09-08T13:52:31.228Z,22.68
2018-09-08T13:53:31.285Z,22.80
2018-09-08T13:55:24.286Z,22.80
2018-09-08T13:56:24.346Z,22.59
2018-09-08T13:58:17.348Z,22.22
2018-09-08T13:59:17.407Z,21.96
2018-09-08T14:01:10.411Z,21.67
2018-09-08T14:02:10.470Z,21.48
2018-09-08T14:04:03.487Z,21.42
2018-09-08T14:05:03.530Z,21.42
2018-09-08T14:06:56.527Z,21.45
2018-09-08T14:07:56.589Z,21.39
2018-09-08T14:09:49.591Z,21.62
2018-09-08T14:10:49.651Z,21.82
2018-09-08T14:12:42.651Z,21.77
2018-09-08T14:13:42.708Z,21.88
2018-09-08T14:15:35.701Z,21.80
2018-09-08T14:16:35.767Z,21.76
2018-09-08T14:18:28.768Z,21.75
2018-09-08T14:19:28.840Z,22.07
2018-09-08T14:21:21.826Z,22.28
2018-09-08T14:22:21.882Z,22.36
2018-09-08T14:24:14.877Z,22.25
2018-09-08T14:25:14.967Z,22.04
2018-09-08T14:27:07.979Z,21.85
2018-09-08T14:28:08.054Z,21.77
2018-09-08T14:30:01.014Z,21.58
2018-09-08T14:31:01.080Z,21.70
2018-09-08T14:32:54.086Z,21.83
2018-09-08T14:33:54.145Z,21.79
2018-09-08T14:35:47.139Z,21.80
2018-09-08T14:36:47.246Z,21.70
2018-09-08T14:38:40.207Z,21.67
2018-09-08T14:39:40.266Z,21.83
2018-09-08T14:41:33.258Z,22.00
2018-09-08T14:42:33.325Z,21.98
2018-09-08T14:44:26.321Z,21.92
2018-09-08T14:45:26.381Z,21.76
2018-09-08T14:47:19.410Z,21.60
2018-09-08T14:48:19.443Z,21.66
2018-09-08T14:50:12.438Z,21.67
2018-09-08T14:51:12.503Z,21.57
2018-09-08T14:53:05.511Z,21.50
2018-09-08T14:54:05.574Z,21.61
2018-09-08T14:55:58.569Z,21.67
2018-09-08T14:56:58.915Z,21.67
2018-09-08T14:58:51.637Z,21.77
2018-09-08T14:59:51.790Z,21.79
2018-09-08T15:01:44.688Z,21.82
2018-09-08T15:02:44.752Z,21.95
2018-09-08T15:04:37.788Z,21.99
2018-09-08T15:05:37.808Z,22.00
2018-09-08T15:07:30.815Z,21.82
2018-09-08T15:08:30.868Z,21.75
2018-09-08T15:10:23.860Z,21.64
2018-09-08T15:11:23.927Z,21.57
2018-09-08T15:13:16.932Z,21.40
2018-09-08T15:14:16.988Z,21.33
2018-09-08T15:16:09.974Z,21.33
2018-09-08T15:17:10.039Z,21.20
2018-09-08T15:19:03.039Z,21.11
2018-09-08T15:20:03.097Z,21.11
2018-09-08T15:21:56.091Z,21.18
2018-09-08T15:22:56.155Z,21.25
2018-09-08T15:24:49.198Z,21.27
2018-09-08T15:25:49.210Z,21.36
2018-09-08T15:27:42.204Z,21.25
2018-09-08T15:28:42.267Z,21.25
2018-09-08T15:30:35.270Z,21.20
2018-09-08T15:31:35.327Z,21.15
2018-09-08T15:33:28.345Z,21.27
2018-09-08T15:34:28.381Z,21.21
2018-09-08T15:36:21.375Z,21.24
2018-09-08T15:37:21.738Z,21.27
2018-09-08T15:39:14.437Z,21.11
2018-09-08T15:40:14.512Z,21.15
2018-09-08T15:42:07.490Z,21.12
2018-09-08T15:43:07.557Z,21.07
2018-09-08T15:45:00.554Z,20.84
2018-09-08T15:46:00.625Z,20.81
2018-09-08T15:47:53.612Z,20.74
2018-09-08T15:48:53.664Z,20.67
2018-09-08T15:50:46.671Z,20.65
2018-09-08T15:51:46.729Z,20.77
2018-09-08T15:53:39.739Z,20.72
2018-09-08T15:54:39.786Z,20.65
2018-09-08T15:56:32.785Z,20.59
2018-09-08T15:57:32.842Z,20.62
2018-09-08T15:59:25.859Z,20.52
2018-09-08T16:00:25.918Z,20.52
2018-09-08T16:02:18.907Z,20.65
2018-09-08T16:03:18.972Z,20.62
2018-09-08T16:05:11.972Z,20.63
2018-09-08T16:06:12.027Z,20.66
2018-09-08T16:08:05.019Z,20.75
2018-09-08T16:09:05.082Z,20.74
2018-09-08T16:10:58.138Z,20.70
2018-09-08T16:11:58.137Z,20.75
2018-09-08T16:13:51.133Z,20.67
2018-09-08T16:14:51.195Z,20.70
2018-09-08T16:16:44.192Z,20.75
2018-09-08T16:17:44.245Z,20.77
2018-09-08T16:19:37.754Z,20.72
2018-09-08T16:20:37.813Z,20.72
2018-09-08T16:22:30.804Z,20.67
2018-09-08T16:23:30.870Z,20.77
2018-09-08T16:25:23.868Z,20.63
2018-09-08T16:26:23.933Z,20.66
2018-09-08T16:28:16.924Z,20.59
2018-09-08T16:29:16.978Z,20.63
2018-09-08T16:31:09.979Z,20.63
2018-09-08T16:32:10.038Z,20.69
2018-09-08T16:34:03.029Z,20.69
2018-09-08T16:35:03.096Z,20.62
2018-09-08T16:36:56.094Z,20.44
2018-09-08T16:37:56.161Z,20.44
2018-09-08T16:39:49.150Z,20.32
2018-09-08T16:40:49.216Z,20.39
2018-09-08T16:42:42.213Z,20.39
2018-09-08T16:43:42.266Z,20.34
2018-09-08T16:45:35.269Z,20.25
2018-09-08T16:46:35.328Z,20.22
2018-09-08T16:48:28.319Z,20.26
2018-09-08T16:49:28.383Z,20.28
2018-09-08T16:51:21.397Z,20.22
2018-09-08T16:52:21.472Z,20.29
2018-09-08T16:54:14.435Z,20.28
2018-09-08T16:55:14.501Z,20.22
2018-09-08T16:57:07.500Z,20.16
2018-09-08T16:58:07.598Z,20.19
2018-09-08T17:00:00.555Z,20.11
2018-09-08T17:01:00.612Z,20.07
2018-09-08T17:02:53.615Z,20.16
2018-09-08T17:03:53.668Z,20.11
2018-09-08T17:05:46.663Z,20.07
2018-09-08T17:06:46.784Z,20.04
2018-09-08T17:08:39.728Z,20.03
2018-09-08T17:09:39.783Z,20.04
2018-09-08T17:11:32.781Z,19.92
2018-09-08T17:12:32.838Z,20.04
2018-09-08T17:14:25.831Z,19.92
2018-09-08T17:15:25.899Z,20.03
2018-09-08T17:17:18.902Z,19.91
2018-09-08T17:18:18.952Z,20.02
2018-09-08T17:20:11.953Z,19.81
2018-09-08T17:21:12.023Z,19.91
2018-09-08T17:23:05.018Z,20.00
2018-09-08T17:24:05.072Z,19.91
2018-09-08T17:25:58.073Z,19.84
2018-09-08T17:26:58.128Z,19.85
2018-09-08T17:28:51.130Z,19.86
2018-09-08T17:29:51.192Z,19.85
2018-09-08T17:31:44.181Z,19.85
2018-09-08T17:32:44.243Z,19.86
2018-09-08T17:34:37.244Z,19.84
2018-09-08T17:35:37.298Z,19.79
2018-09-08T17:37:30.294Z,19.76
2018-09-08T17:38:30.361Z,19.76
2018-09-08T17:40:23.358Z,19.74
2018-09-08T17:41:23.411Z,19.67
2018-09-08T17:43:16.440Z,19.62
2018-09-08T17:44:16.467Z,19.51
2018-09-08T17:46:09.468Z,19.63
2018-09-08T17:47:09.526Z,19.58
2018-09-08T17:49:02.531Z,19.54
2018-09-08T17:50:02.591Z,19.54
2018-09-08T17:51:55.647Z,19.41
2018-09-08T17:52:55.646Z,19.52
2018-09-08T17:54:48.643Z,19.44
2018-09-08T17:55:48.792Z,19.48
2018-09-08T17:57:41.773Z,19.40
2018-09-08T17:58:41.774Z,19.36
2018-09-08T18:00:34.760Z,19.40
2018-09-08T18:01:34.814Z,19.45
2018-09-08T18:03:27.818Z,19.37
2018-09-08T18:04:28.090Z,19.44
2018-09-08T18:06:20.867Z,19.27
2018-09-08T18:07:20.934Z,19.33
2018-09-08T18:09:13.930Z,19.27
2018-09-08T18:10:13.982Z,19.22
2018-09-08T18:12:06.980Z,19.21
2018-09-08T18:13:07.044Z,19.07
2018-09-08T18:15:00.047Z,19.24
2018-09-08T18:16:00.105Z,19.11
2018-09-08T18:17:53.087Z,19.12
2018-09-08T18:18:53.153Z,19.12
2018-09-08T18:20:46.160Z,19.11
2018-09-08T18:21:46.218Z,18.98
2018-09-08T18:23:39.217Z,19.00
2018-09-08T18:24:39.276Z,18.92
2018-09-08T18:26:32.273Z,18.99
2018-09-08T18:27:32.327Z,18.98
2018-09-08T18:29:25.332Z,18.92
2018-09-08T18:30:25.392Z,18.90
2018-09-08T18:32:18.382Z,18.89
2018-09-08T18:33:18.447Z,18.93
2018-09-08T18:35:11.445Z,18.86